Terminal Aerodrome Forecast
Issued by NWS

Home | Current Version | Previous Version | Text Only | Print | Product List | Glossary On
Versions: 1 2 3 4 5 6 7 8 9 10 11 12 13 14 15 16 17 18 19 20 21
000
FTUS43 KGRR 271740
TAFMKG
TAF
KMKG 271740Z 2718/2818 27015G25KT P6SM OVC035
     FM272200 27015KT P6SM -SHRA OVC025
     FM280200 29007KT 5SM SHRA BR OVC015
     FM280600 33004KT 4SM SHRA BR VCTS OVC007CB
     FM281300 05008KT P6SM -SHRA OVC020=

USA.gov is the U.S. government's official web portal to all federal, state and local government web resources and services.